Time;durP1;ratioP1;P1;durP2;ratioP2;P2;SDS_P1;SDS_P2;PMS_P1;PMS_P2;Temp;Humidity;BMP_temperature;BMP_pressure;BME280_temperature;BME280_humidity;BME280_pressure;Samples;Min_cycle;Max_cycle;Signal;HPM_P1;HPM_P2
2023/09/23 00:01:26;;;;;;;7.40;1.70;;;;;;;14.53;100.00;99578.70;109857;1283;22622;-79
2023/09/23 00:03:57;;;;;;;7.80;1.70;;;;;;;14.47;100.00;99587.73;109820;1276;22323;-79
2023/09/23 00:06:28;;;;;;;7.40;1.40;;;;;;;14.50;100.00;99596.50;109793;1283;22196;-79
2023/09/23 00:09:00;;;;;;;6.10;1.70;;;;;;;14.54;100.00;99592.29;109814;1277;22189;-79
2023/09/23 00:11:30;;;;;;;7.60;2.00;;;;;;;14.57;100.00;99591.75;109833;1283;22141;-78
2023/09/23 00:14:01;;;;;;;8.40;2.10;;;;;;;14.60;100.00;99592.02;109835;1280;23087;-80
2023/09/23 00:16:32;;;;;;;8.00;2.00;;;;;;;14.63;100.00;99589.10;109837;1283;22176;-80
2023/09/23 00:19:03;;;;;;;5.90;1.50;;;;;;;14.66;100.00;99593.53;109810;1276;22177;-80
2023/09/23 00:21:34;;;;;;;9.80;1.80;;;;;;;14.67;100.00;99599.99;109826;1277;22178;-80
2023/09/23 00:24:05;;;;;;;5.20;1.50;;;;;;;14.67;100.00;99609.66;109849;1276;22276;-81
2023/09/23 00:26:36;;;;;;;7.50;1.40;;;;;;;14.67;100.00;99615.13;109821;1277;22170;-80
2023/09/23 00:29:07;;;;;;;7.50;1.30;;;;;;;14.65;100.00;99609.61;109823;1277;22214;-80
2023/09/23 00:31:38;;;;;;;6.90;1.20;;;;;;;14.63;100.00;99607.95;109859;1283;22233;-80
2023/09/23 00:34:09;;;;;;;9.60;1.60;;;;;;;14.61;100.00;99608.17;109872;1277;22838;-81
2023/09/23 00:36:40;;;;;;;7.50;1.30;;;;;;;14.63;100.00;99602.33;109868;1277;22194;-80
2023/09/23 00:39:11;;;;;;;5.60;1.20;;;;;;;14.63;100.00;99598.70;109828;1277;22273;-81
2023/09/23 00:41:42;;;;;;;8.30;1.70;;;;;;;14.63;100.00;99584.80;109848;1283;22432;-80
2023/09/23 00:44:13;;;;;;;5.40;1.20;;;;;;;14.65;100.00;99588.73;109887;1283;22334;-81
2023/09/23 00:46:45;;;;;;;3.40;1.10;;;;;;;14.67;100.00;99602.10;109881;1277;22340;-80
2023/09/23 00:49:17;;;;;;;6.50;1.20;;;;;;;14.68;100.00;99609.19;109867;1276;22266;-80
2023/09/23 00:51:47;;;;;;;4.10;1.00;;;;;;;14.69;100.00;99610.45;108168;1283;22250;-80
2023/09/23 00:54:21;;;;;;;5.20;1.10;;;;;;;14.70;100.00;99613.71;108727;1276;22765;-80
2023/09/23 00:56:52;;;;;;;5.90;1.10;;;;;;;14.71;100.00;99623.37;107875;1277;24211;-80
2023/09/23 00:59:24;;;;;;;3.30;1.00;;;;;;;14.69;100.00;99631.86;107074;1276;24259;-79
2023/09/23 01:01:56;;;;;;;4.80;1.10;;;;;;;14.70;100.00;99633.95;107220;1283;22530;-79
2023/09/23 01:04:27;;;;;;;4.80;1.10;;;;;;;14.69;100.00;99639.73;107017;1277;22638;-81
2023/09/23 01:06:59;;;;;;;6.60;1.00;;;;;;;14.67;100.00;99639.14;107124;1276;22546;-79
2023/09/23 01:09:33;;;;;;;6.50;1.10;;;;;;;14.64;100.00;99638.89;107044;1277;25394;-80
2023/09/23 01:12:04;;;;;;;5.30;1.30;;;;;;;14.65;100.00;99634.41;107857;1277;22564;-81
2023/09/23 01:14:35;;;;;;;4.70;1.00;;;;;;;14.64;100.00;99627.81;106998;1280;22539;-80
2023/09/23 01:17:10;;;;;;;5.20;0.80;;;;;;;14.60;100.00;99617.42;106917;1277;22559;-80
2023/09/23 01:19:40;;;;;;;6.50;0.90;;;;;;;14.56;100.00;99602.28;109836;1280;22262;-80
2023/09/23 01:22:12;;;;;;;7.00;1.00;;;;;;;14.56;100.00;99591.25;109825;1277;22156;-80
2023/09/23 01:24:43;;;;;;;7.60;0.90;;;;;;;14.55;100.00;99610.11;109850;1283;23144;-81
2023/09/23 01:27:13;;;;;;;6.70;1.30;;;;;;;14.52;100.00;99607.71;109826;1283;22232;-78
2023/09/23 01:29:44;;;;;;;5.00;1.00;;;;;;;14.49;100.00;99596.25;109865;1277;22705;-79
2023/09/23 01:32:35;;;;;;;7.60;0.90;;;;;;;14.50;100.00;99601.61;109849;1277;22158;-80
2023/09/23 01:35:06;;;;;;;4.20;0.90;;;;;;;14.50;100.00;99596.34;109843;1280;23231;-81
2023/09/23 01:37:41;;;;;;;4.50;0.80;;;;;;;14.50;100.00;99604.10;109836;1277;22167;-81
2023/09/23 01:40:16;;;;;;;4.20;0.80;;;;;;;14.49;100.00;99604.58;109821;1280;22208;-81
2023/09/23 01:42:49;;;;;;;8.10;0.90;;;;;;;14.48;100.00;99598.15;109900;1283;22164;-80
2023/09/23 01:45:20;;;;;;;4.70;0.80;;;;;;;14.48;100.00;99591.77;109861;1283;22157;-80
2023/09/23 01:47:56;;;;;;;8.00;0.90;;;;;;;14.45;100.00;99597.04;109916;1283;22239;-80
2023/09/23 01:50:28;;;;;;;4.30;1.00;;;;;;;14.43;100.00;99604.16;109884;1276;22183;-80
2023/09/23 01:53:01;;;;;;;6.90;1.00;;;;;;;14.42;100.00;99612.39;109901;1283;22143;-80
2023/09/23 01:55:31;;;;;;;4.40;0.90;;;;;;;14.42;100.00;99621.78;109907;1280;22904;-80
2023/09/23 01:58:02;;;;;;;6.70;0.90;;;;;;;14.42;100.00;99622.03;109879;1276;22450;-80
2023/09/23 02:00:36;;;;;;;5.10;1.10;;;;;;;14.41;100.00;99619.02;109871;1276;22199;-80
2023/09/23 02:03:07;;;;;;;5.20;1.10;;;;;;;14.43;100.00;99627.04;109890;1283;22384;-80
2023/09/23 02:05:38;;;;;;;7.30;1.00;;;;;;;14.44;100.00;99629.89;109908;1283;23192;-80
2023/09/23 02:08:09;;;;;;;6.10;1.40;;;;;;;14.43;100.00;99630.62;109886;1283;22180;-80
2023/09/23 02:10:43;;;;;;;7.80;1.10;;;;;;;14.41;100.00;99632.36;109902;1277;22244;-81
2023/09/23 02:13:14;;;;;;;4.40;1.10;;;;;;;14.40;100.00;99624.30;109889;1283;22278;-80
2023/09/23 02:15:45;;;;;;;7.60;1.10;;;;;;;14.38;100.00;99617.52;109797;1283;22210;-80
2023/09/23 02:18:16;;;;;;;3.80;1.10;;;;;;;14.36;100.00;99614.46;109776;1280;22322;-78
2023/09/23 02:20:48;;;;;;;2.90;0.80;;;;;;;14.33;100.00;99615.86;109914;1272;22239;-78
2023/09/23 02:23:21;;;;;;;6.50;0.90;;;;;;;14.29;100.00;99619.05;109885;1283;22192;-78
2023/09/23 02:25:52;;;;;;;6.60;0.90;;;;;;;14.26;100.00;99617.11;109855;1283;22219;-79
2023/09/23 02:28:23;;;;;;;6.50;0.90;;;;;;;14.23;99.97;99625.17;109882;1283;22903;-78
2023/09/23 02:30:55;;;;;;;4.90;1.10;;;;;;;14.19;99.88;99631.17;109845;1283;22391;-78
2023/09/23 02:33:26;;;;;;;5.50;0.80;;;;;;;14.16;100.00;99628.30;109870;1283;22185;-78
2023/09/23 02:35:57;;;;;;;3.70;0.70;;;;;;;14.14;99.83;99629.02;109867;1283;22412;-78
2023/09/23 02:38:29;;;;;;;4.20;0.80;;;;;;;14.12;99.71;99629.08;109880;1283;22281;-77
2023/09/23 02:41:04;;;;;;;4.90;1.00;;;;;;;14.11;99.59;99630.66;109903;1279;22172;-78
2023/09/23 02:43:34;;;;;;;6.30;1.10;;;;;;;14.07;99.39;99639.51;109880;1283;23366;-78
2023/09/23 02:46:06;;;;;;;6.50;1.20;;;;;;;14.03;99.41;99645.91;109879;1283;22223;-78
2023/09/23 02:48:37;;;;;;;5.80;1.00;;;;;;;13.99;99.32;99641.02;109882;1272;22173;-78
2023/09/23 02:51:07;;;;;;;6.40;1.20;;;;;;;13.95;99.32;99632.97;109828;1283;22927;-78
2023/09/23 02:53:38;;;;;;;4.10;0.90;;;;;;;13.92;99.22;99628.39;109876;1283;23157;-78
2023/09/23 02:56:11;;;;;;;7.90;1.20;;;;;;;13.89;99.09;99614.13;109858;1274;22345;-78
2023/09/23 02:58:43;;;;;;;7.00;1.20;;;;;;;13.87;99.06;99598.28;109850;1283;22341;-80
2023/09/23 03:01:16;;;;;;;4.00;1.10;;;;;;;13.84;99.19;99597.41;109832;1283;22136;-80
2023/09/23 03:03:47;;;;;;;6.40;1.20;;;;;;;13.82;99.10;99612.99;109837;1283;22170;-80
2023/09/23 03:06:18;;;;;;;5.50;1.30;;;;;;;13.80;99.21;99635.02;109882;1283;22194;-80
2023/09/23 03:08:53;;;;;;;6.40;1.20;;;;;;;13.79;99.40;99648.55;109878;1283;22185;-80
2023/09/23 03:11:26;;;;;;;6.20;1.10;;;;;;;13.78;99.54;99647.63;109895;1283;22932;-79
2023/09/23 03:13:58;;;;;;;9.20;1.50;;;;;;;13.79;99.74;99650.70;109879;1276;22193;-80
2023/09/23 03:16:29;;;;;;;5.90;1.40;;;;;;;13.81;99.82;99657.12;109862;1283;22715;-80
2023/09/23 03:19:10;;;;;;;6.00;1.80;;;;;;;13.84;99.97;99664.91;109897;1283;22151;-80
2023/09/23 03:21:45;;;;;;;11.00;2.00;;;;;;;13.87;100.00;99679.64;109893;1283;23212;-80
2023/09/23 03:24:15;;;;;;;15.60;2.20;;;;;;;13.86;100.00;99680.52;109873;1283;22286;-80
2023/09/23 03:26:46;;;;;;;9.80;2.30;;;;;;;13.85;100.00;99685.21;109903;1283;22208;-80
2023/09/23 03:29:18;;;;;;;11.50;2.20;;;;;;;13.87;100.00;99676.63;109898;1283;22940;-78
2023/09/23 03:31:49;;;;;;;6.10;1.70;;;;;;;13.90;100.00;99679.59;109883;1283;22187;-79
2023/09/23 03:34:21;;;;;;;10.00;2.10;;;;;;;13.91;100.00;99686.76;109913;1283;22150;-80
2023/09/23 03:36:53;;;;;;;9.20;2.30;;;;;;;13.92;100.00;99694.88;109895;1283;23563;-79
2023/09/23 03:39:24;;;;;;;8.90;1.70;;;;;;;13.91;100.00;99699.98;109916;1280;22168;-80
2023/09/23 03:41:56;;;;;;;9.50;2.10;;;;;;;13.92;100.00;99703.40;109902;1283;22324;-80
2023/09/23 03:44:27;;;;;;;10.90;2.00;;;;;;;13.92;100.00;99702.64;109909;1283;22340;-80
2023/09/23 03:47:00;;;;;;;12.60;2.00;;;;;;;13.94;100.00;99704.52;109870;1283;22357;-80
2023/09/23 03:49:31;;;;;;;8.20;2.20;;;;;;;13.94;100.00;99706.66;109892;1283;22771;-79
2023/09/23 03:52:05;;;;;;;7.10;1.60;;;;;;;13.95;100.00;99710.43;109894;1283;22264;-79
2023/09/23 03:54:36;;;;;;;10.10;1.80;;;;;;;13.96;100.00;99713.48;109887;1277;22122;-80
2023/09/23 03:57:07;;;;;;;11.20;1.90;;;;;;;13.96;100.00;99715.89;109888;1278;22153;-79
2023/09/23 03:59:39;;;;;;;12.00;2.50;;;;;;;13.97;100.00;99712.52;109891;1283;22961;-80
2023/09/23 04:02:10;;;;;;;9.70;1.70;;;;;;;13.97;100.00;99715.56;109908;1278;22167;-79
2023/09/23 04:04:41;;;;;;;4.40;1.10;;;;;;;13.98;100.00;99727.77;109896;1279;22169;-79
2023/09/23 04:07:16;;;;;;;8.00;1.50;;;;;;;13.99;100.00;99725.98;109895;1283;22258;-79
2023/09/23 04:09:47;;;;;;;10.00;2.20;;;;;;;13.99;100.00;99717.36;109932;1283;22177;-79
2023/09/23 04:12:18;;;;;;;9.10;1.60;;;;;;;13.99;100.00;99719.39;109876;1283;22237;-80
2023/09/23 04:14:50;;;;;;;14.40;1.60;;;;;;;13.98;100.00;99737.02;109925;1276;22894;-81
2023/09/23 04:17:24;;;;;;;14.40;1.70;;;;;;;13.98;100.00;99754.15;109895;1283;22159;-79
2023/09/23 04:19:56;;;;;;;11.30;1.70;;;;;;;13.98;100.00;99752.67;109891;1283;22510;-79
2023/09/23 04:22:27;;;;;;;10.60;1.20;;;;;;;13.97;100.00;99747.10;109890;1283;22131;-79
2023/09/23 04:24:57;;;;;;;7.00;1.60;;;;;;;13.96;100.00;99745.38;109902;1283;22771;-79
2023/09/23 04:27:28;;;;;;;6.60;1.50;;;;;;;13.96;100.00;99745.34;109876;1283;22165;-80
2023/09/23 04:30:00;;;;;;;9.90;1.40;;;;;;;13.95;100.00;99740.63;109900;1283;22412;-81
2023/09/23 04:32:31;;;;;;;9.40;1.50;;;;;;;13.96;100.00;99739.97;109897;1283;22280;-79
2023/09/23 04:35:02;;;;;;;13.30;1.70;;;;;;;13.96;100.00;99741.95;107948;1283;25389;-80
2023/09/23 04:37:37;;;;;;;7.80;1.60;;;;;;;13.95;100.00;99741.36;107631;1283;22523;-79
2023/09/23 04:40:11;;;;;;;9.30;1.50;;;;;;;13.93;100.00;99739.56;107709;1278;22551;-80
2023/09/23 04:42:44;;;;;;;8.90;1.60;;;;;;;13.92;100.00;99735.70;106903;1280;22754;-80
2023/09/23 04:45:15;;;;;;;7.80;1.40;;;;;;;13.89;100.00;99740.86;107676;1285;22704;-79
2023/09/23 04:47:50;;;;;;;8.40;1.50;;;;;;;13.87;100.00;99759.95;106952;1285;25478;-79
2023/09/23 04:50:23;;;;;;;9.20;1.70;;;;;;;13.84;100.00;99768.41;107414;1271;22572;-79
2023/09/23 04:52:54;;;;;;;7.00;1.50;;;;;;;13.81;100.00;99774.54;106608;1284;22705;-79
2023/09/23 04:55:25;;;;;;;10.60;2.20;;;;;;;13.78;100.00;99766.69;106654;1285;22581;-79
2023/09/23 04:57:56;;;;;;;12.80;2.60;;;;;;;13.77;100.00;99770.72;106671;1284;22535;-79
2023/09/23 05:00:32;;;;;;;9.20;1.60;;;;;;;13.75;100.00;99782.66;106790;1274;22570;-80
2023/09/23 05:03:03;;;;;;;11.50;1.80;;;;;;;13.74;100.00;99798.72;106778;1278;22618;-78
2023/09/23 05:05:34;;;;;;;9.30;1.80;;;;;;;13.73;100.00;99805.77;106606;1285;22756;-80
2023/09/23 05:08:09;;;;;;;10.40;1.40;;;;;;;13.74;100.00;99812.90;106716;1279;25338;-79
2023/09/23 05:10:41;;;;;;;8.20;1.40;;;;;;;13.73;100.00;99813.22;106698;1278;22552;-78
2023/09/23 05:13:12;;;;;;;7.40;2.30;;;;;;;13.73;100.00;99818.11;106686;1278;24200;-78
2023/09/23 05:15:43;;;;;;;6.20;1.40;;;;;;;13.74;100.00;99813.37;106815;1277;23528;-79
2023/09/23 05:18:14;;;;;;;13.90;2.10;;;;;;;13.76;100.00;99805.25;106842;1276;26001;-79
2023/09/23 05:20:47;;;;;;;5.60;1.30;;;;;;;13.76;100.00;99786.64;106769;1277;24248;-78
2023/09/23 05:23:20;;;;;;;8.20;1.30;;;;;;;13.77;100.00;99782.91;106770;1278;22570;-77
2023/09/23 05:25:51;;;;;;;12.20;1.70;;;;;;;13.80;100.00;99791.08;106736;1280;26524;-77
2023/09/23 05:28:21;;;;;;;11.80;1.60;;;;;;;13.82;100.00;99785.05;106707;1280;23396;-77
2023/09/23 05:30:53;;;;;;;7.00;1.80;;;;;;;13.85;100.00;99764.48;106817;1280;26527;-78
2023/09/23 05:33:24;;;;;;;8.30;1.50;;;;;;;13.87;100.00;99746.88;109846;1279;22211;-78
2023/09/23 05:35:55;;;;;;;10.40;1.70;;;;;;;13.88;100.00;99746.61;109848;1283;22240;-80
2023/09/23 05:38:25;;;;;;;7.50;1.60;;;;;;;13.89;100.00;99752.44;109877;1283;22318;-77
2023/09/23 05:40:56;;;;;;;9.40;1.50;;;;;;;13.91;100.00;99764.84;109861;1283;22416;-79
2023/09/23 05:43:27;;;;;;;6.70;1.60;;;;;;;13.93;100.00;99774.98;109852;1276;22190;-78
2023/09/23 05:45:58;;;;;;;7.80;1.40;;;;;;;13.95;100.00;99781.96;109814;1276;22288;-79
2023/09/23 05:48:29;;;;;;;12.20;2.10;;;;;;;13.98;100.00;99785.42;109804;1281;22660;-79
2023/09/23 05:51:06;;;;;;;6.20;1.60;;;;;;;14.01;100.00;99792.56;109830;1278;22342;-78
2023/09/23 05:53:39;;;;;;;7.20;1.50;;;;;;;14.02;100.00;99793.85;109790;1279;22319;-78
2023/09/23 05:56:13;;;;;;;11.50;1.50;;;;;;;14.04;100.00;99794.20;109793;1276;22294;-78
2023/09/23 05:58:45;;;;;;;10.00;1.90;;;;;;;14.06;100.00;99805.52;109818;1276;23196;-78
2023/09/23 06:01:16;;;;;;;9.50;1.50;;;;;;;14.08;100.00;99817.31;109817;1280;22251;-77
2023/09/23 06:03:48;;;;;;;10.60;1.40;;;;;;;14.10;100.00;99830.16;109803;1279;22160;-78
2023/09/23 06:06:18;;;;;;;8.10;1.40;;;;;;;14.13;100.00;99835.61;109814;1276;22184;-77
2023/09/23 06:08:50;;;;;;;8.30;1.60;;;;;;;14.15;100.00;99832.05;109800;1275;23145;-78
2023/09/23 06:11:21;;;;;;;11.50;2.10;;;;;;;14.18;100.00;99829.02;109810;1276;22351;-78
2023/09/23 06:13:52;;;;;;;9.10;1.90;;;;;;;14.20;100.00;99832.34;109757;1279;22336;-77
2023/09/23 06:16:22;;;;;;;8.60;1.50;;;;;;;14.24;100.00;99837.63;109792;1275;22154;-78
2023/09/23 06:18:53;;;;;;;10.40;1.90;;;;;;;14.27;100.00;99847.48;109807;1276;22159;-78
2023/09/23 06:21:24;;;;;;;8.90;1.30;;;;;;;14.32;100.00;99857.08;109811;1276;22359;-78
2023/09/23 06:23:55;;;;;;;7.70;1.40;;;;;;;14.35;100.00;99868.73;109824;1276;22316;-78
2023/09/23 06:26:26;;;;;;;14.70;1.80;;;;;;;14.39;100.00;99890.38;109798;1280;22256;-78
2023/09/23 06:28:57;;;;;;;5.80;1.20;;;;;;;14.43;100.00;99901.70;109804;1283;22332;-77
2023/09/23 06:31:28;;;;;;;9.10;1.50;;;;;;;14.47;100.00;99919.25;109806;1283;22298;-78
2023/09/23 06:33:59;;;;;;;7.80;1.20;;;;;;;14.52;100.00;99917.45;109844;1280;22413;-78
2023/09/23 06:36:30;;;;;;;7.50;1.20;;;;;;;14.56;100.00;99902.94;109830;1277;23257;-79
2023/09/23 06:39:02;;;;;;;7.30;1.60;;;;;;;14.58;100.00;99868.97;109799;1279;22284;-76
2023/09/23 06:41:33;;;;;;;6.20;1.50;;;;;;;14.60;100.00;99847.61;109884;1277;22205;-75
2023/09/23 06:44:06;;;;;;;7.60;1.50;;;;;;;14.61;100.00;99866.15;109824;1277;22344;-75
2023/09/23 06:46:37;;;;;;;9.80;1.90;;;;;;;14.64;100.00;99871.00;109755;1276;22315;-75
2023/09/23 06:49:08;;;;;;;9.90;2.10;;;;;;;14.68;100.00;99882.98;109815;1283;22374;-75
2023/09/23 06:51:39;;;;;;;7.50;1.30;;;;;;;14.71;100.00;99893.51;109821;1281;22295;-76
2023/09/23 06:54:10;;;;;;;11.40;1.70;;;;;;;14.75;100.00;99893.74;109822;1281;22348;-75
2023/09/23 06:56:41;;;;;;;9.90;1.40;;;;;;;14.80;100.00;99890.81;109817;1278;22406;-75
2023/09/23 06:59:12;;;;;;;9.80;1.50;;;;;;;14.86;100.00;99899.27;109806;1283;22334;-75
2023/09/23 07:01:43;;;;;;;11.10;2.00;;;;;;;14.89;100.00;99907.02;109809;1276;22308;-76
2023/09/23 07:04:13;;;;;;;14.30;1.30;;;;;;;14.93;100.00;99908.60;109785;1277;22302;-75
2023/09/23 07:06:44;;;;;;;8.20;1.40;;;;;;;15.00;100.00;99916.34;109682;1277;22477;-74
2023/09/23 07:09:15;;;;;;;7.90;1.50;;;;;;;15.08;100.00;99925.30;109682;1276;22560;-75
2023/09/23 07:11:46;;;;;;;8.50;1.50;;;;;;;15.15;100.00;99932.17;109715;1277;22309;-76
2023/09/23 07:14:18;;;;;;;9.70;1.30;;;;;;;15.22;100.00;99934.13;109696;1277;22622;-76
2023/09/23 07:16:48;;;;;;;9.70;1.50;;;;;;;15.29;100.00;99941.67;109746;1283;23310;-76
2023/09/23 07:19:19;;;;;;;6.00;1.30;;;;;;;15.34;100.00;99946.86;109535;1276;22340;-75
2023/09/23 07:21:50;;;;;;;8.90;1.10;;;;;;;15.37;100.00;99950.42;109748;1283;23020;-75
2023/09/23 07:24:21;;;;;;;6.20;1.50;;;;;;;15.41;100.00;99952.66;109703;1283;24249;-75
2023/09/23 07:26:54;;;;;;;6.80;1.20;;;;;;;15.46;100.00;99946.38;109710;1275;22390;-74
2023/09/23 07:29:25;;;;;;;5.80;0.90;;;;;;;15.49;100.00;99939.91;109789;1283;22333;-76
2023/09/23 07:31:56;;;;;;;7.00;1.60;;;;;;;15.51;100.00;99942.04;109775;1280;22399;-74
2023/09/23 07:34:27;;;;;;;3.40;0.80;;;;;;;15.54;100.00;99942.79;109730;1280;22239;-74
2023/09/23 07:36:58;;;;;;;6.80;1.00;;;;;;;15.58;100.00;99943.93;109657;1276;22321;-75
2023/09/23 07:39:29;;;;;;;8.90;1.40;;;;;;;15.61;100.00;99948.02;109741;1277;22232;-76
2023/09/23 07:41:59;;;;;;;11.30;1.10;;;;;;;15.67;100.00;99955.45;109781;1283;22390;-76
2023/09/23 07:44:30;;;;;;;8.20;1.10;;;;;;;15.72;100.00;99972.97;109714;1277;22449;-76
2023/09/23 07:47:02;;;;;;;6.90;2.10;;;;;;;15.77;100.00;99970.83;109690;1281;23177;-76
2023/09/23 07:49:33;;;;;;;6.20;1.20;;;;;;;15.84;100.00;99970.34;109707;1281;22225;-76
2023/09/23 07:52:05;;;;;;;8.60;1.50;;;;;;;15.89;100.00;99976.29;109697;1279;22408;-76
2023/09/23 07:54:37;;;;;;;8.30;1.40;;;;;;;15.95;100.00;99979.67;109554;1277;22359;-76
2023/09/23 07:57:08;;;;;;;6.00;1.20;;;;;;;16.00;100.00;99980.04;109719;1280;22212;-76
2023/09/23 07:59:39;;;;;;;8.50;2.10;;;;;;;16.05;100.00;99985.90;109746;1282;22167;-76
2023/09/23 08:02:11;;;;;;;5.20;1.10;;;;;;;16.11;100.00;99986.21;109628;1282;22166;-76
2023/09/23 08:04:41;;;;;;;5.80;0.90;;;;;;;16.14;99.15;99991.42;109698;1283;22165;-76
2023/09/23 08:07:13;;;;;;;3.70;0.60;;;;;;;16.18;99.50;99994.04;109699;1283;22141;-76
2023/09/23 08:09:44;;;;;;;2.80;0.60;;;;;;;16.23;99.35;99999.91;109687;1282;22178;-76
2023/09/23 08:12:14;;;;;;;3.10;0.60;;;;;;;16.24;97.28;100008.65;109730;1283;22405;-75
2023/09/23 08:14:45;;;;;;;5.20;1.00;;;;;;;16.23;96.40;100016.54;109709;1279;22211;-75
2023/09/23 08:17:16;;;;;;;1.90;0.60;;;;;;;16.22;96.24;100014.66;109698;1283;23030;-75
2023/09/23 08:19:47;;;;;;;6.90;0.90;;;;;;;16.21;95.46;100021.42;109609;1277;22230;-76
2023/09/23 08:22:17;;;;;;;4.90;0.90;;;;;;;16.21;95.29;100022.09;109844;1283;22775;-77
2023/09/23 08:24:48;;;;;;;4.40;0.70;;;;;;;16.21;94.87;100025.52;109776;1283;22182;-77
2023/09/23 08:27:19;;;;;;;2.60;0.70;;;;;;;16.24;95.95;100030.63;109805;1283;22231;-77
2023/09/23 08:29:50;;;;;;;5.00;1.00;;;;;;;16.31;96.37;100038.20;109818;1283;22383;-77
2023/09/23 08:32:21;;;;;;;6.70;1.00;;;;;;;16.35;95.52;100038.48;109813;1283;22215;-77
2023/09/23 08:34:52;;;;;;;6.40;0.90;;;;;;;16.39;94.46;100023.23;109827;1278;22950;-77
2023/09/23 08:37:23;;;;;;;4.00;1.00;;;;;;;16.40;93.23;100021.13;109816;1279;22189;-75
2023/09/23 08:39:54;;;;;;;12.00;0.80;;;;;;;16.38;92.44;100022.31;109885;1279;22206;-76
2023/09/23 08:42:27;;;;;;;3.30;0.50;;;;;;;16.36;92.82;100024.38;109780;1280;23239;-76
2023/09/23 08:44:58;;;;;;;3.70;0.40;;;;;;;16.31;90.23;100039.42;109774;1283;22411;-77
2023/09/23 08:47:30;;;;;;;4.60;0.60;;;;;;;16.25;89.83;100043.77;109804;1280;22210;-77
2023/09/23 08:50:03;;;;;;;3.40;0.80;;;;;;;16.18;89.71;100055.45;109725;1282;22416;-77
2023/09/23 08:52:35;;;;;;;3.00;0.60;;;;;;;16.17;91.03;100057.70;109782;1275;22936;-77
2023/09/23 08:55:10;;;;;;;2.60;0.50;;;;;;;16.20;90.25;100064.50;109799;1279;23006;-77
2023/09/23 08:57:41;;;;;;;5.30;0.70;;;;;;;16.25;90.57;100070.83;109654;1283;22486;-77
2023/09/23 09:00:17;;;;;;;2.90;0.60;;;;;;;16.28;88.80;100070.70;109735;1278;22305;-77
2023/09/23 09:02:48;;;;;;;2.60;0.50;;;;;;;16.31;88.94;100067.23;109775;1276;22346;-77
2023/09/23 09:05:20;;;;;;;3.10;0.70;;;;;;;16.34;89.38;100063.02;109795;1283;22274;-77
2023/09/23 09:07:52;;;;;;;5.70;0.80;;;;;;;16.40;89.60;100065.80;109803;1276;22352;-77
2023/09/23 09:10:25;;;;;;;3.00;0.60;;;;;;;16.47;89.66;100071.38;109763;1283;22334;-77
2023/09/23 09:12:57;;;;;;;5.80;0.70;;;;;;;16.51;88.77;100077.67;109778;1279;22177;-77
2023/09/23 09:15:32;;;;;;;4.90;0.50;;;;;;;16.54;89.04;100079.90;109729;1282;22396;-77
2023/09/23 09:18:07;;;;;;;2.60;0.50;;;;;;;16.55;87.92;100077.48;109668;1283;22170;-77
2023/09/23 09:20:38;;;;;;;2.10;0.50;;;;;;;16.58;87.20;100081.88;109729;1279;22176;-76
2023/09/23 09:23:12;;;;;;;1.70;0.40;;;;;;;16.57;86.59;100081.05;109789;1283;22350;-77
2023/09/23 09:25:49;;;;;;;8.20;0.80;;;;;;;16.56;86.76;100079.17;109769;1283;22215;-77
2023/09/23 09:28:22;;;;;;;2.70;0.60;;;;;;;16.58;86.14;100076.55;109786;1283;22325;-77
2023/09/23 09:30:58;;;;;;;3.00;0.60;;;;;;;16.61;87.08;100071.30;109786;1282;22155;-76
2023/09/23 09:33:31;;;;;;;3.40;0.60;;;;;;;16.67;87.14;100075.40;109714;1278;22200;-75
2023/09/23 09:36:02;;;;;;;4.60;0.70;;;;;;;16.71;86.60;100082.12;109784;1278;22267;-77
2023/09/23 09:38:35;;;;;;;3.70;0.40;;;;;;;16.76;86.69;100086.29;109785;1276;22438;-75
2023/09/23 09:41:09;;;;;;;2.60;0.50;;;;;;;16.78;85.17;100087.40;109809;1280;22294;-75
2023/09/23 09:43:41;;;;;;;3.00;0.60;;;;;;;16.78;84.41;100085.91;109801;1277;22185;-75
2023/09/23 09:46:13;;;;;;;3.10;0.50;;;;;;;16.79;84.18;100085.54;109707;1276;22323;-76
2023/09/23 09:48:48;;;;;;;1.70;0.40;;;;;;;16.77;83.59;100079.91;107391;1277;23478;-74
2023/09/23 09:51:23;;;;;;;2.30;0.50;;;;;;;16.77;83.63;100072.73;107150;1277;22628;-74
2023/09/23 09:53:54;;;;;;;1.80;0.50;;;;;;;16.78;83.42;100075.45;107116;1282;22561;-74
2023/09/23 09:56:27;;;;;;;3.00;0.30;;;;;;;16.79;82.48;100083.75;107220;1277;22530;-74
2023/09/23 09:58:59;;;;;;;2.70;0.40;;;;;;;16.77;82.05;100085.91;107051;1283;22567;-74
2023/09/23 10:01:31;;;;;;;1.40;0.30;;;;;;;16.77;82.71;100090.38;107075;1273;23755;-74
2023/09/23 10:04:09;;;;;;;2.40;0.60;;;;;;;16.77;81.42;100086.13;107129;1277;22672;-74
2023/09/23 10:06:42;;;;;;;5.30;0.50;;;;;;;16.73;81.27;100087.89;106942;1277;213645;-74
2023/09/23 10:09:17;;;;;;;3.20;0.60;;;;;;;16.71;81.47;100082.84;107418;1277;22541;-74
2023/09/23 10:11:58;;;;;;;4.30;0.90;;;;;;;16.73;81.44;100080.98;107084;1274;22538;-77
2023/09/23 10:14:29;;;;;;;3.30;0.50;;;;;;;16.77;80.84;100078.60;107003;1275;22539;-78
2023/09/23 10:17:04;;;;;;;4.70;0.60;;;;;;;16.78;81.02;100075.35;106872;1278;22588;-79
2023/09/23 10:19:39;;;;;;;2.20;0.30;;;;;;;16.82;80.77;100076.03;109764;1283;22299;-78
2023/09/23 10:22:18;;;;;;;3.30;0.50;;;;;;;16.86;80.89;100075.98;109794;1283;22279;-78
2023/09/23 10:24:57;;;;;;;1.30;0.40;;;;;;;16.93;80.82;100076.50;109798;1283;22318;-80
2023/09/23 10:27:28;;;;;;;1.60;0.40;;;;;;;16.98;80.21;100075.06;109737;1280;22404;-78
2023/09/23 10:30:00;;;;;;;3.00;0.50;;;;;;;17.04;79.64;100078.71;109805;1283;22315;-80
2023/09/23 10:32:31;;;;;;;2.10;0.40;;;;;;;17.05;79.35;100079.71;109817;1283;22224;-79
2023/09/23 10:35:01;;;;;;;6.90;1.10;;;;;;;17.08;79.09;100076.33;109705;1276;22369;-79
2023/09/23 10:37:34;;;;;;;3.70;0.50;;;;;;;17.12;79.30;100078.52;109785;1283;22930;-77
2023/09/23 10:40:11;;;;;;;4.10;0.60;;;;;;;17.17;78.88;100074.30;109757;1283;22330;-78
2023/09/23 10:42:44;;;;;;;1.90;0.50;;;;;;;17.25;78.59;100074.17;109853;1283;22198;-78
2023/09/23 10:45:16;;;;;;;3.20;0.40;;;;;;;17.31;77.83;100073.85;109787;1282;22251;-79
2023/09/23 10:47:47;;;;;;;3.50;0.50;;;;;;;17.37;78.10;100071.73;109788;1276;22221;-78
2023/09/23 10:50:18;;;;;;;5.30;0.70;;;;;;;17.40;77.83;100071.33;109810;1283;23068;-77
2023/09/23 10:52:49;;;;;;;3.80;0.50;;;;;;;17.45;78.07;100067.02;109808;1283;22241;-78
2023/09/23 10:55:20;;;;;;;3.80;0.60;;;;;;;17.51;77.90;100066.62;109800;1283;22175;-80
2023/09/23 10:57:54;;;;;;;2.60;0.80;;;;;;;17.55;76.96;100073.45;109795;1283;22307;-78
2023/09/23 11:00:25;;;;;;;3.40;0.50;;;;;;;17.59;77.40;100075.98;109784;1283;22223;-78
2023/09/23 11:02:56;;;;;;;4.50;0.40;;;;;;;17.65;77.26;100084.58;109780;1283;22310;-78
2023/09/23 11:05:28;;;;;;;2.90;0.50;;;;;;;17.68;76.71;100089.71;109817;1283;22345;-77
2023/09/23 11:07:59;;;;;;;3.20;0.50;;;;;;;17.72;76.19;100095.20;109810;1277;22336;-78
2023/09/23 11:10:30;;;;;;;4.00;0.40;;;;;;;17.73;75.88;100096.17;109759;1283;22201;-79
2023/09/23 11:13:04;;;;;;;2.70;0.50;;;;;;;17.77;76.31;100095.66;109837;1283;22147;-77
2023/09/23 11:15:36;;;;;;;0.60;0.10;;;;;;;17.84;75.25;100090.29;109764;1282;22313;-80
2023/09/23 11:18:09;;;;;;;3.10;0.60;;;;;;;17.89;75.04;100090.64;109779;1277;22261;-78
2023/09/23 11:20:42;;;;;;;3.80;0.30;;;;;;;17.96;75.01;100090.59;109788;1275;22203;-80
2023/09/23 11:23:13;;;;;;;2.50;0.50;;;;;;;17.96;73.98;100094.29;109796;1267;22801;-78
2023/09/23 11:25:46;;;;;;;1.10;0.20;;;;;;;17.92;72.98;100102.14;109780;1274;23184;-80
2023/09/23 11:28:22;;;;;;;2.40;0.30;;;;;;;17.89;72.90;100103.01;109800;1283;23364;-78
2023/09/23 11:30:54;;;;;;;0.90;0.20;;;;;;;17.88;72.66;100103.48;109795;1282;22297;-78
2023/09/23 11:33:26;;;;;;;2.50;0.40;;;;;;;17.88;72.92;100107.85;109794;1280;22202;-78
2023/09/23 11:35:57;;;;;;;2.90;0.40;;;;;;;17.89;72.81;100115.23;109633;1275;22343;-80
2023/09/23 11:38:27;;;;;;;3.20;0.60;;;;;;;17.89;72.51;100113.58;109712;1282;22871;-80